Time;durP1;ratioP1;P1;durP2;ratioP2;P2;SDS_P1;SDS_P2;PMS_P1;PMS_P2;Temp;Humidity;BMP_temperature;BMP_pressure;BME280_temperature;BME280_humidity;BME280_pressure;Samples;Min_cycle;Max_cycle;Signal;HPM_P1;HPM_P2
2022/06/24 00:00:04;;;;;;;5.20;3.28;;;21.60;64.50;;;;;;5011826;28;20045;-70
2022/06/24 00:02:31;;;;;;;6.28;3.45;;;21.60;64.70;;;;;;5012071;28;20080;-67
2022/06/24 00:05:00;;;;;;;4.25;3.50;;;21.50;64.80;;;;;;4993226;28;20050;-67
2022/06/24 00:07:26;;;;;;;4.20;3.75;;;21.50;65.00;;;;;;4994593;28;20045;-67
2022/06/24 00:09:52;;;;;;;4.85;3.90;;;21.40;65.00;;;;;;4987240;28;20050;-68
2022/06/24 00:12:23;;;;;;;6.82;3.78;;;21.40;65.10;;;;;;5014658;28;20045;-67
2022/06/24 00:15:00;;;;;;;3.92;3.55;;;21.40;65.30;;;;;;5005793;28;20091;-67
2022/06/24 00:17:29;;;;;;;4.85;3.50;;;21.30;65.80;;;;;;5004530;28;20045;-66
2022/06/24 00:20:04;;;;;;;5.43;3.63;;;21.20;66.00;;;;;;4999656;28;20048;-67
2022/06/24 00:22:32;;;;;;;5.95;3.95;;;21.20;66.60;;;;;;5005056;28;20034;-67
2022/06/24 00:25:22;;;;;;;4.47;4.07;;;21.00;67.10;;;;;;5003743;28;20069;-70
2022/06/24 00:28:03;;;;;;;4.43;3.40;;;20.80;67.90;;;;;;5006958;28;20041;-68
2022/06/24 00:30:35;;;;;;;;;;;20.70;68.50;;;;;;4986913;28;20044;-69
2022/06/24 00:33:13;;;;;;;4.22;3.80;;;20.70;68.50;;;;;;5004243;28;20262;-69
2022/06/24 00:35:47;;;;;;;8.43;4.00;;;20.70;68.60;;;;;;4986912;28;20054;-69
2022/06/24 00:38:34;;;;;;;8.57;4.13;;;20.70;68.80;;;;;;5003842;28;20133;-66
2022/06/24 00:41:06;;;;;;;4.72;3.97;;;20.60;69.60;;;;;;5007274;28;20092;-67
2022/06/24 00:43:35;;;;;;;5.25;4.10;;;20.70;69.00;;;;;;4976161;28;20132;-70
2022/06/24 00:46:15;;;;;;;4.40;3.78;;;20.70;69.40;;;;;;5009803;28;20069;-67
2022/06/24 00:48:47;;;;;;;5.95;3.75;;;20.60;70.00;;;;;;4991478;28;20081;-67
2022/06/24 00:51:13;;;;;;;4.90;3.83;;;20.50;70.50;;;;;;5006114;28;20061;-67
2022/06/24 00:53:47;;;;;;;4.07;3.58;;;20.40;70.70;;;;;;5009589;28;20073;-70
2022/06/24 00:56:15;;;;;;;5.10;3.60;;;20.40;71.10;;;;;;5009340;28;20077;-67
2022/06/24 00:58:53;;;;;;;4.75;3.92;;;20.30;71.30;;;;;;5010255;28;20046;-67
2022/06/24 01:01:27;;;;;;;5.68;4.28;;;20.10;76.00;;;;;;4992412;28;20041;-67
2022/06/24 01:03:55;;;;;;;4.35;3.65;;;20.10;77.80;;;;;;5009664;28;20498;-67
2022/06/24 01:06:21;;;;;;;4.63;4.10;;;19.90;78.50;;;;;;5013820;28;20438;-66
2022/06/24 01:08:47;;;;;;;4.40;3.70;;;20.00;79.00;;;;;;5013724;28;20037;-68
2022/06/24 01:11:12;;;;;;;4.55;4.10;;;20.00;79.50;;;;;;5009573;28;20467;-68
2022/06/24 01:13:39;;;;;;;4.50;3.72;;;20.10;79.60;;;;;;5009228;28;20044;-69
2022/06/24 01:16:05;;;;;;;6.47;4.63;;;20.10;79.50;;;;;;5008237;28;20034;-67
2022/06/24 01:18:31;;;;;;;5.45;4.07;;;20.10;79.40;;;;;;4992187;28;20137;-67
2022/06/24 01:20:57;;;;;;;5.00;3.90;;;20.20;79.20;;;;;;4988900;28;20569;-67
2022/06/24 01:23:24;;;;;;;5.32;4.22;;;20.20;79.10;;;;;;4990802;28;20057;-68
2022/06/24 01:25:50;;;;;;;5.18;4.47;;;20.20;79.00;;;;;;5009384;28;20513;-67
2022/06/24 01:28:16;;;;;;;5.38;3.92;;;20.20;79.10;;;;;;5008660;28;20171;-67
2022/06/24 01:30:41;;;;;;;9.18;4.07;;;20.30;79.10;;;;;;5019017;28;20516;-68
2022/06/24 01:33:07;;;;;;;6.22;4.20;;;20.30;78.80;;;;;;4965254;28;20494;-67
2022/06/24 01:35:33;;;;;;;4.60;4.07;;;20.30;78.60;;;;;;4976070;28;20041;-67
2022/06/24 01:37:59;;;;;;;4.72;4.32;;;20.20;78.50;;;;;;5007958;28;20060;-67
2022/06/24 01:40:25;;;;;;;4.50;4.10;;;20.30;78.30;;;;;;5006315;28;20137;-67
2022/06/24 01:42:51;;;;;;;4.85;4.32;;;20.20;78.30;;;;;;5012619;28;20044;-66
2022/06/24 01:45:17;;;;;;;6.13;4.60;;;20.20;78.30;;;;;;5012068;28;20096;-69
2022/06/24 01:47:43;;;;;;;4.80;4.30;;;20.20;78.30;;;;;;4996736;28;20363;-68
2022/06/24 01:50:09;;;;;;;6.53;4.32;;;20.30;78.30;;;;;;5011618;28;20045;-67
2022/06/24 01:52:35;;;;;;;4.80;4.38;;;20.30;78.00;;;;;;5013186;28;20125;-67
2022/06/24 01:55:01;;;;;;;5.00;4.50;;;20.30;78.00;;;;;;5013091;28;20156;-67
2022/06/24 01:57:27;;;;;;;4.78;4.30;;;20.30;78.10;;;;;;4997024;28;20037;-67
2022/06/24 01:59:53;;;;;;;6.55;4.47;;;20.30;77.90;;;;;;5013205;28;20046;-69
2022/06/24 02:02:19;;;;;;;4.78;4.38;;;20.30;77.80;;;;;;4991147;28;20046;-68
2022/06/24 02:04:48;;;;;;;5.68;4.40;;;20.30;77.60;;;;;;5011314;28;20050;-67
2022/06/24 02:07:14;;;;;;;8.32;4.70;;;20.40;77.90;;;;;;5009707;28;20494;-67
2022/06/24 02:15:08;;;;;;;5.38;4.88;;;20.30;77.90;;;;;;5002911;28;20045;-68
2022/06/24 02:17:34;;;;;;;5.63;4.50;;;20.30;78.30;;;;;;5006859;28;20049;-67
2022/06/24 02:20:00;;;;;;;6.55;4.70;;;20.30;78.30;;;;;;5004533;28;20049;-68
2022/06/24 02:22:26;;;;;;;6.63;4.72;;;20.30;78.50;;;;;;5006750;28;20050;-67
2022/06/24 02:24:52;;;;;;;6.53;4.65;;;20.30;78.60;;;;;;4993640;28;20061;-68
2022/06/24 02:27:18;;;;;;;7.13;4.82;;;20.20;78.60;;;;;;4988848;28;20060;-68
2022/06/24 02:29:44;;;;;;;5.43;4.93;;;20.20;78.60;;;;;;5005455;28;20133;-67
2022/06/24 02:32:11;;;;;;;5.53;4.80;;;20.20;79.00;;;;;;5005584;28;20065;-67
2022/06/24 02:34:37;;;;;;;6.32;4.97;;;20.20;79.10;;;;;;4988746;28;20514;-70
2022/06/24 02:37:03;;;;;;;5.50;4.97;;;20.10;79.20;;;;;;5006819;28;20201;-67
2022/06/24 02:39:29;;;;;;;6.10;5.03;;;20.10;79.40;;;;;;5005953;28;20049;-68
2022/06/24 02:41:55;;;;;;;5.40;4.90;;;20.10;79.70;;;;;;5009793;28;20148;-68
2022/06/24 02:44:21;;;;;;;6.78;4.80;;;20.00;80.00;;;;;;5009327;28;20045;-67
2022/06/24 02:46:46;;;;;;;6.72;4.88;;;20.00;80.20;;;;;;5011338;28;20069;-67
2022/06/24 02:49:12;;;;;;;6.93;4.70;;;19.90;80.50;;;;;;4994902;28;20046;-67
2022/06/24 02:51:38;;;;;;;5.25;4.57;;;19.90;80.90;;;;;;5010726;28;20121;-67
2022/06/24 02:54:04;;;;;;;7.07;4.85;;;19.90;81.20;;;;;;4977111;28;20085;-67
2022/06/24 02:56:30;;;;;;;7.00;5.40;;;19.80;82.00;;;;;;5012046;28;20042;-67
2022/06/24 02:58:56;;;;;;;5.68;4.70;;;19.70;82.90;;;;;;5011799;28;20042;-67
2022/06/24 03:01:22;;;;;;;7.68;4.88;;;19.60;83.70;;;;;;5011581;28;20050;-68
2022/06/24 03:03:48;;;;;;;7.10;5.05;;;19.60;84.20;;;;;;5007718;28;20475;-66
2022/06/24 03:06:14;;;;;;;6.15;5.22;;;19.50;85.00;;;;;;4992664;28;20068;-67
2022/06/24 03:08:40;;;;;;;5.28;4.53;;;19.50;85.70;;;;;;4990972;28;20120;-67
2022/06/24 03:11:06;;;;;;;7.18;4.75;;;19.40;86.30;;;;;;4995470;28;20065;-68
2022/06/24 03:13:32;;;;;;;6.75;4.75;;;19.40;87.30;;;;;;5012813;28;20078;-69
2022/06/24 03:16:01;;;;;;;7.25;5.43;;;19.40;88.30;;;;;;5003810;28;20177;-69
2022/06/24 03:18:27;;;;;;;5.90;5.30;;;19.30;89.20;;;;;;5006570;28;20048;-66
2022/06/24 03:20:53;;;;;;;6.32;5.70;;;19.20;90.30;;;;;;5005512;28;20379;-67
2022/06/24 03:23:19;;;;;;;5.60;4.78;;;19.30;91.00;;;;;;5003065;28;20529;-67
2022/06/24 03:25:46;;;;;;;6.30;5.03;;;19.30;91.20;;;;;;5003219;28;20060;-67
2022/06/24 03:28:12;;;;;;;5.38;4.85;;;19.30;91.50;;;;;;5006619;28;20376;-68
2022/06/24 03:30:39;;;;;;;8.93;4.85;;;19.40;91.90;;;;;;5006362;28;20081;-67
2022/06/24 03:33:06;;;;;;;5.32;4.82;;;19.40;92.50;;;;;;4975008;28;20048;-67
2022/06/24 03:35:32;;;;;;;6.47;5.03;;;19.40;93.00;;;;;;5001139;28;20030;-70
2022/06/24 03:37:58;;;;;;;5.68;4.90;;;19.40;93.80;;;;;;4990696;28;20084;-67
2022/06/24 03:40:24;;;;;;;6.05;5.22;;;19.50;94.30;;;;;;5009862;28;20033;-67
2022/06/24 03:42:50;;;;;;;6.80;4.90;;;19.50;94.50;;;;;;5005186;28;20132;-68
2022/06/24 03:45:17;;;;;;;5.93;4.70;;;19.50;94.10;;;;;;4988655;28;20073;-66
2022/06/24 03:47:43;;;;;;;8.27;5.40;;;19.60;94.60;;;;;;5004959;28;20044;-67
2022/06/24 03:50:10;;;;;;;5.68;5.18;;;19.50;95.20;;;;;;4995009;28;20038;-66
2022/06/24 03:52:36;;;;;;;5.90;5.30;;;19.50;95.80;;;;;;5006254;28;20042;-67
2022/06/24 03:55:02;;;;;;;6.22;5.63;;;19.50;96.30;;;;;;5004375;28;20382;-70
2022/06/24 03:57:29;;;;;;;7.25;5.50;;;19.50;96.30;;;;;;5006071;28;20379;-69
2022/06/24 03:59:55;;;;;;;6.65;5.07;;;19.50;96.50;;;;;;5004753;28;20038;-68
2022/06/24 04:02:23;;;;;;;6.68;5.30;;;19.50;96.60;;;;;;4987325;28;20547;-68
2022/06/24 04:04:49;;;;;;;8.05;5.15;;;19.50;96.80;;;;;;5002303;28;20422;-68
2022/06/24 04:07:15;;;;;;;6.13;5.20;;;19.60;96.80;;;;;;5019423;28;20050;-67
2022/06/24 04:09:41;;;;;;;5.60;4.85;;;19.60;96.60;;;;;;5002356;28;20046;-66
2022/06/24 04:12:08;;;;;;;7.13;5.47;;;19.70;97.30;;;;;;5005892;28;20106;-67
2022/06/24 04:17:18;;;;;;;5.90;5.30;;;19.50;99.90;;;;;;4990608;28;20124;-67
2022/06/24 04:19:44;;;;;;;7.20;5.20;;;19.50;99.90;;;;;;4989526;28;20438;-67
2022/06/24 04:22:10;;;;;;;6.03;5.43;;;19.40;99.90;;;;;;5005390;28;20145;-67
2022/06/24 04:24:36;;;;;;;6.07;5.50;;;19.50;99.90;;;;;;4973239;28;20046;-67
2022/06/24 04:27:02;;;;;;;6.43;5.30;;;19.40;99.90;;;;;;4970820;28;20467;-70
2022/06/24 04:29:28;;;;;;;7.55;4.82;;;19.30;99.90;;;;;;4990756;28;20394;-67
2022/06/24 04:31:54;;;;;;;9.43;5.25;;;19.40;99.90;;;;;;5005935;28;20052;-67
2022/06/24 04:34:20;;;;;;;7.55;5.45;;;19.50;99.90;;;;;;5004156;28;20072;-67
2022/06/24 04:36:46;;;;;;;6.72;5.82;;;19.50;99.90;;;;;;4977017;28;20046;-67
2022/06/24 04:39:12;;;;;;;6.40;5.80;;;19.50;99.90;;;;;;5008686;28;20042;-67
2022/06/24 04:41:37;;;;;;;8.93;5.80;;;19.60;99.90;;;;;;5012304;28;20386;-66
2022/06/24 04:44:03;;;;;;;7.47;6.10;;;19.70;99.90;;;;;;4988521;28;20108;-68
2022/06/24 04:46:29;;;;;;;8.10;6.00;;;19.80;99.90;;;;;;5012591;28;20072;-67
2022/06/24 04:48:55;;;;;;;7.63;5.53;;;19.80;99.90;;;;;;4998259;28;20046;-67
2022/06/24 04:51:21;;;;;;;7.07;5.43;;;19.90;99.90;;;;;;5013186;28;20487;-67
2022/06/24 04:53:47;;;;;;;6.53;5.72;;;20.00;99.90;;;;;;5014297;28;20041;-67
2022/06/24 04:56:13;;;;;;;6.95;5.50;;;20.10;99.90;;;;;;4996994;28;20046;-67
2022/06/24 04:58:39;;;;;;;8.63;5.60;;;20.20;99.90;;;;;;4998070;28;20601;-67
2022/06/24 05:01:05;;;;;;;6.30;5.70;;;20.40;99.90;;;;;;4978437;28;20056;-69
2022/06/24 05:03:31;;;;;;;7.38;5.68;;;20.50;99.90;;;;;;5014300;28;20501;-67
2022/06/24 05:05:57;;;;;;;7.05;5.80;;;20.70;99.90;;;;;;4983437;28;20052;-66
2022/06/24 05:08:23;;;;;;;7.93;5.43;;;20.70;99.90;;;;;;5016287;28;20490;-67
2022/06/24 05:10:48;;;;;;;7.28;6.05;;;20.90;99.90;;;;;;4994450;28;20529;-66
2022/06/24 05:13:14;;;;;;;8.30;5.25;;;21.10;99.90;;;;;;5025825;28;20171;-70
2022/06/24 05:15:40;;;;;;;10.52;5.95;;;21.20;99.90;;;;;;5029794;28;20041;-70
2022/06/24 05:18:06;;;;;;;6.55;5.47;;;21.10;99.90;;;;;;4995990;28;20352;-68
2022/06/24 05:20:32;;;;;;;6.80;5.80;;;21.00;99.90;;;;;;4993830;28;20091;-70
2022/06/24 05:22:58;;;;;;;8.02;5.70;;;20.90;99.90;;;;;;5010850;28;20568;-67
2022/06/24 05:25:24;;;;;;;6.22;5.55;;;20.90;99.90;;;;;;5011694;28;20517;-66
2022/06/24 05:27:50;;;;;;;6.93;6.10;;;20.80;99.90;;;;;;5014103;28;20504;-67
2022/06/24 05:30:16;;;;;;;9.15;6.10;;;20.80;99.90;;;;;;4994481;28;20375;-68
2022/06/24 05:32:42;;;;;;;7.05;6.05;;;20.80;99.90;;;;;;4992901;28;20128;-67
2022/06/24 05:35:08;;;;;;;7.82;5.80;;;20.80;99.90;;;;;;4994496;28;20510;-68
2022/06/24 05:37:35;;;;;;;7.05;6.35;;;20.90;99.90;;;;;;4993732;28;20057;-68
2022/06/24 05:40:01;;;;;;;7.45;6.28;;;20.80;99.90;;;;;;5007678;28;20033;-69
2022/06/24 05:42:27;;;;;;;9.20;6.60;;;20.90;99.90;;;;;;5010003;28;20041;-67
2022/06/24 05:44:53;;;;;;;8.27;6.43;;;20.80;99.90;;;;;;5012148;28;20541;-67
2022/06/24 05:47:19;;;;;;;8.40;6.38;;;20.80;99.90;;;;;;5009556;28;20473;-67
2022/06/24 05:49:45;;;;;;;7.28;6.57;;;20.90;99.90;;;;;;4994608;28;22254;-67
2022/06/24 05:52:11;;;;;;;7.57;6.88;;;20.90;99.90;;;;;;5024671;28;20103;-67
2022/06/24 05:57:21;;;;;;;7.32;6.22;;;21.00;99.90;;;;;;5012245;28;20072;-66
2022/06/24 05:59:47;;;;;;;6.60;6.00;;;21.00;99.90;;;;;;5009715;28;20973;-67
2022/06/24 06:02:13;;;;;;;8.30;6.45;;;21.00;99.90;;;;;;5007157;28;20500;-67
2022/06/24 06:04:39;;;;;;;7.72;6.90;;;20.80;99.90;;;;;;4993848;28;20073;-68
2022/06/24 06:07:05;;;;;;;10.30;8.55;;;20.60;99.90;;;;;;4993788;28;20044;-73
2022/06/24 06:09:33;;;;;;;13.40;8.45;;;20.20;99.90;;;;;;5010814;28;20494;-69
2022/06/24 06:11:59;;;;;;;19.23;9.70;;;19.50;99.90;;;;;;4992793;28;20045;-71
2022/06/24 06:14:25;;;;;;;18.67;10.20;;;18.80;99.90;;;;;;4995445;28;20049;-71
2022/06/24 06:16:50;;;;;;;14.90;10.32;;;18.40;99.90;;;;;;5014666;28;20722;-71
2022/06/24 06:19:16;;;;;;;18.38;10.52;;;18.10;99.90;;;;;;4999913;28;20382;-72
2022/06/24 06:21:44;;;;;;;13.90;10.43;;;17.90;99.90;;;;;;4999877;28;20121;-69
2022/06/24 06:24:09;;;;;;;14.65;10.80;;;17.80;99.90;;;;;;4995182;28;20504;-69
2022/06/24 06:26:35;;;;;;;14.45;11.27;;;17.80;99.90;;;;;;5015754;28;20045;-68
2022/06/24 06:29:02;;;;;;;16.42;11.52;;;17.80;99.90;;;;;;5016070;28;20394;-71
2022/06/24 06:31:28;;;;;;;16.67;10.43;;;17.70;99.90;;;;;;5015796;28;20560;-69
2022/06/24 06:33:54;;;;;;;14.15;11.48;;;17.70;99.90;;;;;;5013956;28;20038;-68
2022/06/24 06:36:20;;;;;;;16.13;11.10;;;17.70;99.90;;;;;;5015171;28;20490;-69
2022/06/24 06:38:46;;;;;;;17.15;11.48;;;17.70;99.90;;;;;;5012826;28;20377;-69
2022/06/24 06:41:19;;;;;;;13.20;11.20;;;17.60;99.90;;;;;;5015229;28;20114;-72
2022/06/24 06:43:46;;;;;;;21.23;12.15;;;17.60;99.90;;;;;;5013056;28;20037;-71
2022/06/24 06:46:12;;;;;;;15.70;11.90;;;17.60;99.90;;;;;;5013972;28;20437;-70
2022/06/24 06:48:39;;;;;;;17.83;13.00;;;17.50;99.90;;;;;;5015539;28;20037;-68
2022/06/24 06:51:05;;;;;;;19.40;12.18;;;17.60;99.90;;;;;;5010684;28;20136;-68
2022/06/24 06:53:31;;;;;;;16.35;12.27;;;17.70;99.90;;;;;;5030228;28;20421;-69
2022/06/24 06:55:58;;;;;;;16.77;13.23;;;17.80;99.90;;;;;;5015355;28;20052;-68
2022/06/24 06:58:24;;;;;;;17.25;13.60;;;17.90;99.90;;;;;;5012609;28;20385;-70
2022/06/24 07:00:51;;;;;;;18.80;13.40;;;18.00;99.90;;;;;;5013941;28;20136;-68
2022/06/24 07:03:18;;;;;;;19.35;14.05;;;18.10;99.90;;;;;;5012312;28;20415;-68
2022/06/24 07:05:44;;;;;;;17.92;14.82;;;18.10;99.90;;;;;;5012535;28;20057;-68
2022/06/24 07:08:12;;;;;;;19.38;16.58;;;18.20;99.90;;;;;;5014749;28;20080;-68
2022/06/24 07:10:39;;;;;;;22.60;17.25;;;18.30;99.90;;;;;;5010578;28;20045;-71
2022/06/24 07:13:06;;;;;;;21.35;18.70;;;18.60;99.90;;;;;;5010704;28;20045;-69
2022/06/24 07:15:32;;;;;;;24.73;19.10;;;18.80;99.90;;;;;;4983287;28;20037;-72
2022/06/24 07:17:58;;;;;;;25.13;19.02;;;19.00;99.90;;;;;;4985012;28;20501;-68
2022/06/24 07:20:27;;;;;;;22.80;16.92;;;19.20;99.90;;;;;;4992766;28;20053;-69
2022/06/24 07:22:54;;;;;;;26.58;19.08;;;19.40;99.90;;;;;;5009705;28;20385;-68
2022/06/24 07:25:20;;;;;;;24.45;18.60;;;19.40;99.90;;;;;;4993557;28;20041;-68
2022/06/24 07:27:46;;;;;;;23.95;18.67;;;19.60;99.90;;;;;;5009118;28;20474;-68
2022/06/24 07:30:13;;;;;;;24.80;18.73;;;19.70;99.90;;;;;;4985327;28;20129;-71
2022/06/24 07:32:39;;;;;;;21.35;17.58;;;19.90;99.90;;;;;;5009825;28;20049;-69
2022/06/24 07:35:06;;;;;;;20.42;17.52;;;20.00;99.90;;;;;;5009035;28;20048;-68
2022/06/24 07:37:32;;;;;;;21.20;17.27;;;20.00;99.90;;;;;;5002307;28;20079;-79
2022/06/24 07:39:58;;;;;;;20.83;16.33;;;20.00;99.90;;;;;;4993909;28;20351;-74
2022/06/24 07:42:24;;;;;;;20.05;15.15;;;20.10;99.90;;;;;;5012757;28;20077;-73
2022/06/24 07:44:50;;;;;;;22.75;16.33;;;20.20;99.90;;;;;;5019805;28;20037;-73
2022/06/24 07:47:16;;;;;;;25.25;17.77;;;20.10;99.90;;;;;;4998357;28;20049;-73
2022/06/24 07:49:42;;;;;;;25.83;17.70;;;20.10;99.90;;;;;;4997743;28;20552;-73
2022/06/24 07:52:09;;;;;;;20.88;16.38;;;20.10;99.90;;;;;;4995457;28;20124;-74
2022/06/24 07:54:36;;;;;;;24.85;18.25;;;20.00;99.90;;;;;;5012987;28;20049;-73
2022/06/24 07:57:02;;;;;;;23.50;17.95;;;20.00;99.90;;;;;;4997466;28;20041;-75
2022/06/24 07:59:34;;;;;;;21.33;16.48;;;20.10;99.90;;;;;;5002682;28;20046;-78
2022/06/24 08:02:04;;;;;;;22.08;16.45;;;20.30;99.90;;;;;;5010774;28;20045;-74
2022/06/24 08:04:30;;;;;;;21.47;16.20;;;20.50;99.90;;;;;;5009788;28;20106;-74
2022/06/24 08:06:58;;;;;;;25.77;16.23;;;20.70;99.90;;;;;;5005386;28;20045;-73
2022/06/24 08:09:27;;;;;;;24.95;17.30;;;21.00;99.90;;;;;;5009524;28;20039;-76
2022/06/24 08:11:53;;;;;;;21.48;15.93;;;21.20;99.90;;;;;;4994925;28;20053;-73
2022/06/24 08:14:20;;;;;;;20.60;15.45;;;21.30;99.90;;;;;;5009707;28;20052;-72
2022/06/24 08:16:46;;;;;;;17.90;15.63;;;21.30;99.90;;;;;;5026924;28;20138;-74
2022/06/24 08:19:12;;;;;;;19.60;15.18;;;21.40;99.90;;;;;;4993823;28;20486;-76
2022/06/24 08:21:38;;;;;;;21.63;15.13;;;21.30;99.90;;;;;;5012944;28;20068;-75
2022/06/24 08:24:04;;;;;;;24.23;15.63;;;21.20;99.90;;;;;;5010916;28;20088;-76
2022/06/24 08:26:30;;;;;;;21.13;14.68;;;21.30;99.90;;;;;;4978698;28;20062;-74
2022/06/24 08:28:57;;;;;;;22.38;17.40;;;21.40;99.90;;;;;;5008995;28;20056;-72
2022/06/24 08:31:23;;;;;;;21.52;15.85;;;21.50;99.90;;;;;;4993110;28;20444;-74
2022/06/24 08:33:49;;;;;;;19.52;14.95;;;21.40;99.90;;;;;;4993285;28;20041;-73
2022/06/24 08:36:16;;;;;;;18.95;14.80;;;21.30;99.90;;;;;;4983263;28;20077;-71
2022/06/24 08:38:42;;;;;;;20.45;14.85;;;21.40;99.90;;;;;;5008709;28;20045;-74
2022/06/24 08:41:08;;;;;;;21.95;14.48;;;21.40;99.90;;;;;;5009256;28;20041;-76
2022/06/24 08:43:35;;;;;;;20.65;16.15;;;21.40;99.90;;;;;;5008093;28;20096;-78
2022/06/24 08:46:03;;;;;;;18.20;14.32;;;21.50;99.90;;;;;;5012774;28;20049;-75
2022/06/24 08:48:31;;;;;;;21.08;14.55;;;21.50;99.90;;;;;;5000366;28;20069;-75
2022/06/24 08:50:59;;;;;;;19.65;15.13;;;21.60;99.90;;;;;;5009839;28;20474;-75
2022/06/24 08:53:27;;;;;;;18.73;14.75;;;21.60;99.90;;;;;;4997320;28;20107;-72
2022/06/24 08:55:54;;;;;;;18.90;14.65;;;21.70;99.90;;;;;;5011573;28;20088;-73
2022/06/24 08:58:21;;;;;;;18.15;15.27;;;21.60;99.90;;;;;;4983422;28;20045;-73
2022/06/24 09:00:47;;;;;;;20.67;15.98;;;21.70;99.90;;;;;;5009532;28;20042;-72
2022/06/24 09:03:14;;;;;;;20.35;14.52;;;21.70;99.90;;;;;;5007654;28;20030;-74
2022/06/24 09:05:40;;;;;;;21.30;15.10;;;21.60;99.90;;;;;;5006869;28;20405;-78
2022/06/24 09:08:12;;;;;;;18.52;15.60;;;21.50;99.90;;;;;;5009045;28;20253;-68
2022/06/24 09:10:40;;;;;;;18.25;14.57;;;21.40;99.90;;;;;;5008747;28;20288;-69
2022/06/24 09:13:06;;;;;;;19.95;15.02;;;21.40;99.90;;;;;;4983492;28;20774;-68
2022/06/24 09:15:32;;;;;;;22.30;15.35;;;21.40;99.90;;;;;;5006271;28;20072;-73
2022/06/24 09:18:00;;;;;;;19.35;14.60;;;21.40;99.90;;;;;;4986499;28;20057;-69
2022/06/24 09:20:29;;;;;;;24.30;15.63;;;21.30;99.90;;;;;;5008735;28;20136;-69
2022/06/24 09:23:07;;;;;;;18.42;13.10;;;21.40;99.90;;;;;;4994897;28;20139;-69
2022/06/24 09:25:56;;;;;;;16.48;13.05;;;21.50;99.90;;;;;;5010379;28;20037;-70
2022/06/24 09:28:28;;;;;;;17.80;13.90;;;21.50;99.90;;;;;;4986251;28;20053;-70
2022/06/24 09:31:05;;;;;;;14.95;11.90;;;21.50;99.90;;;;;;4992257;28;20046;-69
2022/06/24 09:33:39;;;;;;;15.30;11.90;;;21.50;99.90;;;;;;5011981;28;20117;-72
2022/06/24 09:36:07;;;;;;;15.98;11.32;;;21.30;99.90;;;;;;4996151;28;20042;-70
2022/06/24 09:38:52;;;;;;;15.20;11.15;;;21.30;99.90;;;;;;5016438;28;20494;-69
2022/06/24 09:41:18;;;;;;;13.88;10.35;;;21.30;99.90;;;;;;5012604;28;20115;-69
2022/06/24 09:43:44;;;;;;;12.40;9.77;;;21.10;99.90;;;;;;5016221;28;20467;-70
2022/06/24 09:46:17;;;;;;;11.77;10.00;;;21.20;99.90;;;;;;5008869;28;20056;-72
2022/06/24 09:48:43;;;;;;;14.52;10.32;;;21.40;99.90;;;;;;5012268;28;20103;-69
2022/06/24 09:51:09;;;;;;;11.50;10.30;;;21.40;99.90;;;;;;5025519;28;20053;-71
2022/06/24 09:53:40;;;;;;;14.38;11.60;;;21.50;99.90;;;;;;5010632;28;20041;-69
2022/06/24 09:56:07;;;;;;;15.50;11.63;;;21.60;99.90;;;;;;4993906;28;20041;-69
2022/06/24 09:58:39;;;;;;;16.17;11.68;;;21.70;99.90;;;;;;5009372;28;20304;-71
2022/06/24 10:01:05;;;;;;;17.63;11.82;;;21.70;99.90;;;;;;5010506;28;20041;-69
2022/06/24 10:03:34;;;;;;;17.20;13.50;;;21.70;99.90;;;;;;5012397;28;20053;-70
2022/06/24 10:06:11;;;;;;;18.67;13.52;;;21.70;99.90;;;;;;4996333;28;20382;-70
2022/06/24 10:08:40;;;;;;;14.30;11.23;;;21.80;99.90;;;;;;5009701;28;20045;-68
2022/06/24 10:11:12;;;;;;;13.00;11.32;;;21.90;99.90;;;;;;5011748;28;20033;-72
2022/06/24 10:13:38;;;;;;;12.80;11.30;;;22.00;99.90;;;;;;5010170;28;20057;-68
2022/06/24 10:16:08;;;;;;;14.52;10.77;;;22.00;99.90;;;;;;4993922;28;20482;-68
2022/06/24 10:18:39;;;;;;;16.48;12.27;;;22.00;99.90;;;;;;5011549;28;20043;-68
2022/06/24 10:21:08;;;;;;;17.60;12.23;;;22.00;99.90;;;;;;5004793;28;20056;-69
2022/06/24 10:23:40;;;;;;;15.48;12.80;;;22.20;99.90;;;;;;5029561;28;20137;-67
2022/06/24 10:26:13;;;;;;;14.35;12.38;;;22.40;99.90;;;;;;4999164;28;20118;-69
2022/06/24 10:29:05;;;;;;;15.75;12.95;;;22.70;99.90;;;;;;5015047;28;20478;-67
2022/06/24 10:34:31;;;;;;;11.38;10.20;;;22.90;99.90;;;;;;5015410;28;20084;-67
2022/06/24 10:36:59;;;;;;;;;;;22.90;99.90;;;;;;4994736;28;20041;-68
2022/06/24 10:39:27;;;;;;;12.90;11.43;;;22.80;99.90;;;;;;4996451;28;19963;-69
2022/06/24 10:42:05;;;;;;;14.07;10.02;;;22.80;99.90;;;;;;4994193;28;20136;-68
2022/06/24 10:44:36;;;;;;;12.27;10.98;;;22.60;99.90;;;;;;5010185;28;20072;-68
2022/06/24 10:47:05;;;;;;;12.45;10.95;;;22.40;99.90;;;;;;4985432;28;20116;-68
2022/06/24 10:49:50;;;;;;;12.30;11.00;;;22.30;99.90;;;;;;5022491;28;20115;-68
2022/06/24 10:52:36;;;;;;;13.30;11.48;;;22.10;99.90;;;;;;5011734;28;20616;-68
2022/06/24 10:55:18;;;;;;;7.75;6.68;;;21.80;99.90;;;;;;5014293;28;20045;-70
2022/06/24 10:57:49;;;;;;;9.38;2.20;;;21.20;99.90;;;;;;5015174;28;20045;-68
2022/06/24 11:00:16;;;;;;;3.35;0.73;;;20.70;99.90;;;;;;4997470;28;20515;-70
2022/06/24 11:02:45;;;;;;;2.95;0.82;;;19.70;99.90;;;;;;5012674;28;20498;-71
2022/06/24 11:05:18;;;;;;;6.30;0.90;;;19.10;99.90;;;;;;4995308;28;20375;-69
2022/06/24 11:07:45;;;;;;;5.50;1.23;;;18.70;99.90;;;;;;5014440;28;20045;-69
2022/06/24 11:10:16;;;;;;;2.08;0.85;;;18.50;99.90;;;;;;5013997;28;20478;-68
2022/06/24 11:12:46;;;;;;;;;;;18.30;99.90;;;;;;5015134;28;20045;-68
2022/06/24 11:15:12;;;;;;;2.80;0.80;;;18.20;99.90;;;;;;4998953;28;19929;-69
2022/06/24 11:17:42;;;;;;;4.97;1.02;;;18.00;99.90;;;;;;4997097;28;20041;-69
2022/06/24 11:20:13;;;;;;;2.42;0.80;;;17.90;99.90;;;;;;5011474;28;20466;-69
2022/06/24 11:22:47;;;;;;;3.13;0.77;;;17.80;99.90;;;;;;5014581;28;20045;-68
2022/06/24 11:25:17;;;;;;;1.90;0.63;;;17.70;99.90;;;;;;5011788;28;20080;-69
2022/06/24 11:27:43;;;;;;;1.05;0.57;;;17.60;99.90;;;;;;5014950;28;20080;-68
2022/06/24 11:30:10;;;;;;;2.80;0.77;;;17.60;99.90;;;;;;5014563;28;20068;-67
2022/06/24 11:32:56;;;;;;;3.20;0.63;;;17.50;99.90;;;;;;5014495;28;20033;-68
2022/06/24 11:35:23;;;;;;;2.28;0.70;;;17.60;99.90;;;;;;5014657;28;20521;-70
2022/06/24 11:37:50;;;;;;;1.67;0.68;;;17.50;99.90;;;;;;5014900;28;20045;-68
2022/06/24 11:40:32;;;;;;;6.40;1.10;;;17.60;99.90;;;;;;4998299;28;20064;-68
2022/06/24 11:43:07;;;;;;;2.13;1.00;;;17.70;99.90;;;;;;5014528;28;20044;-68
2022/06/24 11:45:44;;;;;;;1.40;0.95;;;17.70;99.90;;;;;;5014370;28;20452;-68
2022/06/24 11:48:17;;;;;;;3.80;1.40;;;17.70;99.90;;;;;;5014363;28;20042;-68
2022/06/24 11:50:43;;;;;;;7.35;1.50;;;17.70;99.90;;;;;;5013650;28;20107;-68
2022/06/24 11:53:09;;;;;;;7.70;4.35;;;17.70;99.90;;;;;;5014001;28;20045;-68
2022/06/24 11:55:36;;;;;;;9.77;5.03;;;17.80;99.90;;;;;;5014554;28;20123;-68
2022/06/24 11:58:08;;;;;;;4.90;4.00;;;17.80;99.90;;;;;;4998060;28;20086;-70
2022/06/24 12:00:36;;;;;;;8.75;5.30;;;17.90;99.90;;;;;;4997803;28;20397;-68
2022/06/24 12:03:05;;;;;;;9.80;6.13;;;17.90;99.90;;;;;;5013966;28;20077;-69
2022/06/24 12:05:33;;;;;;;9.98;6.93;;;17.90;99.90;;;;;;5013935;28;20126;-68
2022/06/24 12:08:00;;;;;;;7.78;6.65;;;18.00;99.90;;;;;;4997996;28;20049;-68
2022/06/24 12:10:26;;;;;;;8.10;6.57;;;18.00;99.90;;;;;;5013842;28;20564;-67
2022/06/24 12:12:56;;;;;;;14.35;7.63;;;18.10;99.90;;;;;;5007149;28;20520;-69
2022/06/24 12:15:38;;;;;;;8.25;6.78;;;18.10;99.90;;;;;;5017106;28;20205;-69
2022/06/24 12:18:23;;;;;;;4.65;4.20;;;18.20;99.90;;;;;;4999645;28;20079;-67
2022/06/24 12:21:04;;;;;;;5.75;3.80;;;18.20;99.90;;;;;;5011624;28;20084;-67
2022/06/24 12:23:38;;;;;;;7.90;4.20;;;18.10;99.90;;;;;;5013152;28;20045;-66
2022/06/24 12:26:11;;;;;;;7.10;5.05;;;18.20;99.90;;;;;;5014080;28;20494;-66
2022/06/24 12:28:37;;;;;;;5.78;4.13;;;18.20;99.90;;;;;;5013009;28;20480;-67
2022/06/24 12:31:04;;;;;;;6.68;5.18;;;18.20;99.90;;;;;;5013806;28;20120;-67
2022/06/24 12:33:51;;;;;;;7.18;5.30;;;18.30;99.90;;;;;;5013578;28;20045;-66
2022/06/24 12:36:19;;;;;;;6.88;5.28;;;18.30;99.90;;;;;;4997280;28;20126;-66
2022/06/24 12:38:45;;;;;;;7.22;5.38;;;18.40;99.90;;;;;;5013386;28;20164;-67
2022/06/24 12:41:19;;;;;;;6.72;5.55;;;18.50;99.90;;;;;;4997317;28;20386;-66
2022/06/24 12:43:57;;;;;;;7.03;6.20;;;18.50;99.90;;;;;;4996973;28;20119;-66
2022/06/24 12:46:25;;;;;;;7.38;6.57;;;18.50;99.90;;;;;;5013550;28;20376;-67
2022/06/24 12:51:46;;;;;;;5.78;4.78;;;18.90;99.90;;;;;;5011157;28;20054;-66
2022/06/24 12:54:14;;;;;;;6.55;4.90;;;19.00;99.90;;;;;;5013087;28;20111;-66
2022/06/24 12:56:42;;;;;;;4.72;3.92;;;18.90;99.90;;;;;;5013462;28;20041;-66
2022/06/24 12:59:09;;;;;;;4.45;4.05;;;19.00;99.90;;;;;;4996801;28;20394;-66
2022/06/24 13:01:44;;;;;;;4.85;4.25;;;19.00;99.90;;;;;;5015813;28;20087;-66